Aberdeen Gardens, Washington
Current Conditions -  °F | °C
As of 10:53 AM on Friday 21 Nov 2014 (Local Time) from KHQM Reporting Station
Light Rain Light Rain  
Wind Chill: 50°   Ceiling: 2000
Heat Index: 50°   Visibility: 2.5mi
Dew Point: 48°   Wind: 10mph
Humidity: 93%   Direction: 80°E
Pressure: 29.58"   Gusts: NA
Location:  47.1445°N, 123.771°W
Report Text: KHQM 211853Z AUTO 08009KT 2 1/2SM -RA BR SCT014 OVC020 10/09 A2958 RMK AO2 SLP019 P0010 T01000089
Loading
Personal Weather Stations






























Interactive Weather Map New forecast layout! Learn more

10-Day Weather Forecast

Advertisements
Track Severe Weather on mobile